createdAt,value
2022-11-18T00:01:09.549Z,94341.63
2022-11-18T00:03:37.591Z,94308.88
2022-11-18T00:06:06.411Z,94312.69
2022-11-18T00:08:34.753Z,94328.34
2022-11-18T00:11:06.971Z,94324.63
2022-11-18T00:13:54.260Z,94299.06
2022-11-18T00:16:22.080Z,94340.09
2022-11-18T00:18:49.986Z,94332.94
2022-11-18T00:21:17.855Z,94333.16
2022-11-18T00:23:45.684Z,94327.34
2022-11-18T00:26:15.133Z,94307.47
2022-11-18T00:28:44.290Z,94334.97
2022-11-18T00:31:13.883Z,94336.63
2022-11-18T00:33:42.081Z,94328.28
2022-11-18T00:36:13.093Z,94330.28
2022-11-18T00:38:41.553Z,94293.13
2022-11-18T00:41:12.258Z,94316.06
2022-11-18T00:43:39.409Z,94325.31
2022-11-18T00:46:10.593Z,94292.66
2022-11-18T00:48:39.122Z,94303.84
2022-11-18T00:51:12.759Z,94309.44
2022-11-18T00:53:40.606Z,94313.75
2022-11-18T00:56:08.960Z,94332.56
2022-11-18T00:58:37.075Z,94334.34
2022-11-18T01:01:05.788Z,94309.28
2022-11-18T01:03:35.054Z,94323.25
2022-11-18T01:06:02.910Z,94298.38
2022-11-18T01:08:30.852Z,94323.06
2022-11-18T01:11:19.624Z,94321.81
2022-11-18T01:13:49.861Z,94307.97
2022-11-18T01:16:20.259Z,94319.72
2022-11-18T01:18:49.761Z,94266.47
2022-11-18T01:21:18.267Z,94326.53
2022-11-18T01:23:46.249Z,94332.13
2022-11-18T01:26:16.248Z,94328.06
2022-11-18T01:28:44.513Z,94327.72
2022-11-18T01:31:14.596Z,94336.66
2022-11-18T01:33:43.245Z,94337.53
2022-11-18T01:36:21.182Z,94294.19
2022-11-18T01:38:49.734Z,94338.91
2022-11-18T01:41:18.440Z,94275.13
2022-11-18T01:43:52.395Z,94319.50
2022-11-18T01:46:21.033Z,94279.75
2022-11-18T01:48:51.738Z,94326.97
2022-11-18T01:51:26.593Z,94315.56
2022-11-18T01:54:01.042Z,94331.69
2022-11-18T01:56:34.229Z,94307.56
2022-11-18T01:59:07.468Z,94317.09
2022-11-18T02:01:35.455Z,94329.59
2022-11-18T02:04:03.410Z,94298.84
2022-11-18T02:06:33.288Z,94168.09
2022-11-18T02:09:02.723Z,94322.00
2022-11-18T02:11:49.455Z,94329.84
2022-11-18T02:14:18.475Z,94314.66
2022-11-18T02:17:01.812Z,94319.91
2022-11-18T02:19:48.569Z,94287.94
2022-11-18T02:22:36.916Z,94324.19
2022-11-18T02:25:09.398Z,94307.41
2022-11-18T02:28:17.160Z,94314.31
2022-11-18T02:30:51.337Z,94308.97
2022-11-18T02:33:26.006Z,94329.09
2022-11-18T02:35:59.749Z,94311.66
2022-11-18T02:38:32.401Z,94325.84
2022-11-18T02:41:04.985Z,94320.16
2022-11-18T02:43:37.920Z,94313.88
2022-11-18T02:46:11.074Z,94320.03
2022-11-18T02:48:43.817Z,94326.19
2022-11-18T02:51:13.747Z,94323.75
2022-11-18T02:53:43.340Z,94324.31
2022-11-18T02:56:11.771Z,94293.28
2022-11-18T02:58:39.645Z,94320.06
2022-11-18T03:01:16.540Z,94326.41
2022-11-18T03:03:44.501Z,94331.25
2022-11-18T03:06:22.969Z,94331.34
2022-11-18T03:08:56.085Z,94321.31
2022-11-18T03:11:25.999Z,94331.59
2022-11-18T03:14:10.904Z,94340.84
2022-11-18T03:16:46.724Z,94328.88
2022-11-18T03:19:21.297Z,94324.22
2022-11-18T03:22:00.173Z,94331.94
2022-11-18T03:24:33.167Z,94327.03
2022-11-18T03:27:11.999Z,94327.03
2022-11-18T03:29:46.300Z,94322.22
2022-11-18T03:32:20.161Z,94278.16
2022-11-18T03:34:52.048Z,94315.19
2022-11-18T03:37:22.074Z,94321.00
2022-11-18T03:39:55.161Z,94318.63
2022-11-18T03:42:29.818Z,94319.78
2022-11-18T03:45:02.558Z,94329.03
2022-11-18T03:47:36.386Z,94318.19
2022-11-18T03:50:10.095Z,94267.56
2022-11-18T03:52:38.804Z,94263.88
2022-11-18T03:55:12.431Z,94311.28
2022-11-18T03:57:45.464Z,94303.53
2022-11-18T04:00:16.520Z,94244.84
2022-11-18T04:02:48.922Z,94297.81
2022-11-18T04:05:18.672Z,94307.56
2022-11-18T04:07:55.160Z,94253.75
2022-11-18T04:10:28.356Z,94292.09
2022-11-18T04:13:06.357Z,94307.19
2022-11-18T04:15:37.891Z,94308.13
2022-11-18T04:18:07.227Z,94310.00
2022-11-18T04:20:35.429Z,94309.84
2022-11-18T04:23:03.265Z,94317.69
2022-11-18T04:25:31.197Z,94322.16
2022-11-18T04:27:59.147Z,94322.34
2022-11-18T04:30:27.065Z,94315.63
2022-11-18T04:32:54.965Z,94316.72
2022-11-18T04:35:24.185Z,94313.72
2022-11-18T04:37:52.157Z,94316.59
2022-11-18T04:40:20.256Z,94334.59
2022-11-18T04:42:48.504Z,94181.94
2022-11-18T04:45:16.396Z,94342.25
2022-11-18T04:47:44.226Z,94348.31
2022-11-18T04:50:12.130Z,94347.81
2022-11-18T04:52:41.324Z,94337.53
2022-11-18T04:55:09.669Z,94333.41
2022-11-18T04:57:37.550Z,94329.03
2022-11-18T05:00:06.724Z,94335.72
2022-11-18T05:02:34.584Z,94337.75
2022-11-18T05:05:02.415Z,94332.88
2022-11-18T05:07:30.298Z,94333.31
2022-11-18T05:09:59.542Z,94339.13
2022-11-18T05:12:45.009Z,94335.78
2022-11-18T05:15:12.893Z,94325.19
2022-11-18T05:17:40.702Z,94335.38
2022-11-18T05:20:09.324Z,94333.34
2022-11-18T05:22:37.220Z,94340.72
2022-11-18T05:25:07.526Z,94318.38
2022-11-18T05:27:35.635Z,94295.66
2022-11-18T05:30:03.492Z,94344.88
2022-11-18T05:32:31.313Z,94343.00
2022-11-18T05:34:59.188Z,94310.44
2022-11-18T05:37:27.071Z,94349.81
2022-11-18T05:39:54.868Z,94327.13
2022-11-18T05:42:41.432Z,94340.44
2022-11-18T05:45:09.870Z,94275.72
2022-11-18T05:47:58.781Z,94297.03
2022-11-18T05:50:26.664Z,94330.25
2022-11-18T05:52:54.499Z,94328.78
2022-11-18T05:55:26.041Z,94330.78
2022-11-18T05:57:55.276Z,94294.03
2022-11-18T06:00:23.289Z,94341.56
2022-11-18T06:02:52.963Z,94318.28
2022-11-18T06:05:24.287Z,94295.59
2022-11-18T06:07:52.232Z,94342.13
2022-11-18T06:10:23.906Z,94339.88
2022-11-18T06:12:57.621Z,94230.81
2022-11-18T06:15:29.102Z,94292.38
2022-11-18T06:18:00.889Z,94316.16
2022-11-18T06:20:29.547Z,94333.84
2022-11-18T06:22:59.273Z,94319.09
2022-11-18T06:25:27.246Z,94347.59
2022-11-18T06:28:00.338Z,94341.69
2022-11-18T06:30:29.733Z,94270.72
2022-11-18T06:32:57.595Z,94333.63
2022-11-18T06:35:25.533Z,94253.03
2022-11-18T06:37:53.381Z,94339.75
2022-11-18T06:40:21.324Z,94311.81
2022-11-18T06:43:06.693Z,94320.44
2022-11-18T06:45:36.097Z,94309.47
2022-11-18T06:48:04.249Z,94337.84
2022-11-18T06:50:32.376Z,94302.75
2022-11-18T06:53:01.566Z,94312.59
2022-11-18T06:55:29.485Z,94336.63
2022-11-18T06:57:57.789Z,94281.31
2022-11-18T07:00:25.732Z,94288.91
2022-11-18T07:02:54.944Z,94330.59
2022-11-18T07:05:22.795Z,94337.06
2022-11-18T07:07:50.721Z,94320.97
2022-11-18T07:10:18.807Z,94342.78
2022-11-18T07:12:46.819Z,94288.09
2022-11-18T07:15:14.706Z,94306.28
2022-11-18T07:17:42.527Z,94341.38
2022-11-18T07:20:12.673Z,94320.03
2022-11-18T07:22:40.576Z,94309.50
2022-11-18T07:25:08.902Z,94301.28
2022-11-18T07:27:36.750Z,94289.19
2022-11-18T07:30:05.299Z,94311.31
2022-11-18T07:32:34.279Z,94309.63
2022-11-18T07:35:02.127Z,94258.81
2022-11-18T07:37:31.338Z,94309.34
2022-11-18T07:40:00.061Z,94271.75
2022-11-18T07:42:28.157Z,94308.56
2022-11-18T07:44:55.989Z,94279.66
2022-11-18T07:47:23.853Z,94278.88
2022-11-18T07:49:51.705Z,94297.41
2022-11-18T07:52:19.549Z,94304.28
2022-11-18T07:54:48.721Z,94298.41
2022-11-18T07:57:16.617Z,94308.47
2022-11-18T07:59:44.534Z,94290.97
2022-11-18T08:02:12.834Z,94299.28
2022-11-18T08:04:40.769Z,94294.38
2022-11-18T08:07:10.689Z,94326.50
2022-11-18T08:09:40.126Z,94343.28
2022-11-18T08:12:09.738Z,94334.09
2022-11-18T08:14:37.586Z,94347.19
2022-11-18T08:17:05.459Z,94330.03
2022-11-18T08:19:35.427Z,94341.72
2022-11-18T08:22:03.302Z,94322.41
2022-11-18T08:24:31.157Z,94319.78
2022-11-18T08:26:59.618Z,94317.28
2022-11-18T08:29:29.312Z,94305.31
2022-11-18T08:31:57.494Z,94299.50
2022-11-18T08:34:25.357Z,94292.16
2022-11-18T08:36:53.211Z,94299.63
2022-11-18T08:39:21.187Z,94307.94
2022-11-18T08:41:49.084Z,94293.75
2022-11-18T08:44:18.069Z,94246.19
2022-11-18T08:46:47.309Z,94259.97
2022-11-18T08:49:15.708Z,94264.81
2022-11-18T08:51:44.173Z,94267.47
2022-11-18T08:54:12.011Z,94265.19
2022-11-18T08:56:40.263Z,94269.75
2022-11-18T08:59:08.999Z,94225.72
2022-11-18T09:01:37.984Z,94237.16
2022-11-18T09:04:07.522Z,94230.78
2022-11-18T09:06:35.806Z,94190.44
2022-11-18T09:09:06.461Z,94208.31
2022-11-18T09:11:46.205Z,94203.28
2022-11-18T09:15:11.923Z,94211.28
2022-11-18T09:17:02.187Z,94217.97
2022-11-18T09:19:46.881Z,94226.72
2022-11-18T09:22:15.902Z,94204.50
2022-11-18T09:24:44.996Z,94211.03
2022-11-18T09:27:16.932Z,94212.78
2022-11-18T09:29:45.693Z,94195.25
2022-11-18T09:32:13.777Z,94214.25
2022-11-18T09:34:43.027Z,94208.34
2022-11-18T09:37:11.033Z,94203.75
2022-11-18T09:39:38.976Z,94200.03
2022-11-18T09:42:28.399Z,94178.75
2022-11-18T09:45:12.934Z,94191.94
2022-11-18T09:47:42.204Z,94128.44
2022-11-18T09:50:47.354Z,94156.13
2022-11-18T09:53:14.318Z,94159.19
2022-11-18T09:55:43.553Z,94161.78
2022-11-18T09:58:18.337Z,94146.84
2022-11-18T10:00:46.754Z,94149.38
2022-11-18T10:03:28.144Z,94165.03
2022-11-18T10:06:04.961Z,94139.78
2022-11-18T10:08:37.768Z,94131.19
2022-11-18T10:11:13.678Z,94136.28
2022-11-18T10:13:56.452Z,94137.94
2022-11-18T10:16:33.183Z,94096.50
2022-11-18T10:19:12.351Z,94144.19
2022-11-18T10:21:52.443Z,94152.41
2022-11-18T10:24:22.353Z,94080.28
2022-11-18T10:26:56.566Z,94110.22
2022-11-18T10:29:25.021Z,94056.47
2022-11-18T10:32:03.797Z,94107.63
2022-11-18T10:34:32.975Z,94109.56
2022-11-18T10:37:04.238Z,94102.63
2022-11-18T10:39:32.283Z,94071.81
2022-11-18T10:42:04.314Z,94079.38
2022-11-18T10:44:38.415Z,94086.22
2022-11-18T10:47:28.436Z,94079.91
2022-11-18T10:49:58.186Z,94074.09
2022-11-18T10:52:29.627Z,94064.75
2022-11-18T10:55:24.917Z,94044.22
2022-11-18T10:57:57.290Z,94059.31
2022-11-18T11:00:43.775Z,94059.75
2022-11-18T11:03:30.507Z,94069.06
2022-11-18T11:06:25.225Z,94057.78
2022-11-18T11:08:56.223Z,94046.16
2022-11-18T11:11:28.604Z,94053.06
2022-11-18T11:14:04.570Z,94048.41
2022-11-18T11:16:37.341Z,94056.94
2022-11-18T11:19:07.967Z,94036.06
2022-11-18T11:21:35.810Z,94051.97
2022-11-18T11:24:12.474Z,94046.91
2022-11-18T11:30:03.868Z,94023.66
2022-11-18T11:32:41.130Z,94021.75
2022-11-18T11:35:16.245Z,94018.63
2022-11-18T11:37:55.032Z,94024.41
2022-11-18T11:40:33.715Z,94017.88
2022-11-18T11:43:28.886Z,93993.44
2022-11-18T11:46:13.618Z,94015.91
2022-11-18T11:48:54.587Z,94007.78
2022-11-18T11:51:32.190Z,94026.00
2022-11-18T11:54:22.102Z,94006.59
2022-11-18T11:56:56.468Z,94008.50
2022-11-18T11:59:31.212Z,93975.53
2022-11-18T12:02:16.081Z,94005.81
2022-11-18T12:04:47.746Z,93922.44
2022-11-18T12:07:19.617Z,94002.63
2022-11-18T12:10:03.864Z,93966.22
2022-11-18T12:12:38.520Z,94014.31
2022-11-18T12:15:17.639Z,93976.69
2022-11-18T12:17:54.181Z,93998.00
2022-11-18T12:20:43.209Z,94012.75
2022-11-18T12:23:14.025Z,93986.06
2022-11-18T12:25:57.083Z,93978.69
2022-11-18T12:28:32.546Z,93976.38
2022-11-18T12:31:33.560Z,93949.25
2022-11-18T12:34:05.283Z,93965.50
2022-11-18T12:36:35.195Z,93958.91
2022-11-18T12:39:36.504Z,93924.84
2022-11-18T12:42:23.169Z,93936.06
2022-11-18T12:44:54.438Z,93971.72
2022-11-18T12:48:00.880Z,93938.00
2022-11-18T12:50:50.210Z,93947.31
2022-11-18T12:53:34.230Z,93951.19
2022-11-18T12:56:02.085Z,93949.22
2022-11-18T12:58:29.919Z,93928.31
2022-11-18T13:01:12.670Z,93853.16
2022-11-18T13:03:40.801Z,93929.84
2022-11-18T13:06:20.284Z,93939.94
2022-11-18T13:08:53.543Z,93928.28
2022-11-18T13:11:40.167Z,93913.53
2022-11-18T13:14:32.941Z,93891.84
2022-11-18T13:17:19.648Z,93879.44
2022-11-18T13:19:57.153Z,93869.22
2022-11-18T13:22:44.982Z,93885.09
2022-11-18T13:25:26.299Z,93889.91
2022-11-18T13:28:01.985Z,93855.75
2022-11-18T13:30:31.811Z,93859.19
2022-11-18T13:33:01.364Z,93874.91
2022-11-18T13:35:29.920Z,93879.34
2022-11-18T13:37:59.358Z,93848.81
2022-11-18T13:40:29.455Z,93874.47
2022-11-18T13:42:57.574Z,93828.34
2022-11-18T13:45:28.689Z,93859.03
2022-11-18T13:48:02.929Z,93878.84
2022-11-18T13:50:34.519Z,93845.84
2022-11-18T13:53:14.034Z,93862.97
2022-11-18T13:55:47.990Z,93871.47
2022-11-18T13:58:40.129Z,93887.06
2022-11-18T14:01:20.836Z,93828.97
2022-11-18T14:03:53.193Z,93859.06
2022-11-18T14:06:29.402Z,93849.84
2022-11-18T14:09:08.708Z,93863.84
2022-11-18T14:11:38.090Z,93853.75
2022-11-18T14:14:06.567Z,93859.91
2022-11-18T14:16:36.951Z,93852.91
2022-11-18T14:19:07.145Z,93809.91
2022-11-18T14:21:38.289Z,93854.78
2022-11-18T14:24:07.151Z,93853.69
2022-11-18T14:26:36.999Z,93827.41
2022-11-18T14:29:20.997Z,93804.97
2022-11-18T14:32:05.390Z,93839.03
2022-11-18T14:34:34.736Z,93852.94
2022-11-18T14:37:03.601Z,93831.16
2022-11-18T14:39:33.606Z,93833.53
2022-11-18T14:42:01.858Z,93838.25
2022-11-18T14:44:30.663Z,93857.25
2022-11-18T14:47:00.178Z,93870.84
2022-11-18T14:49:30.823Z,93848.75
2022-11-18T14:52:02.533Z,93871.66
2022-11-18T14:54:31.151Z,93847.59
2022-11-18T14:57:02.695Z,93825.13
2022-11-18T14:59:30.933Z,93849.91
2022-11-18T15:01:59.675Z,93894.06
2022-11-18T15:04:27.805Z,93888.59
2022-11-18T15:06:56.163Z,93880.84
2022-11-18T15:09:25.478Z,93904.88
2022-11-18T15:11:53.298Z,93906.84
2022-11-18T15:14:21.784Z,93898.25
2022-11-18T15:16:49.711Z,93900.84
2022-11-18T15:19:17.815Z,93892.19
2022-11-18T15:21:46.375Z,93874.91
2022-11-18T15:24:14.401Z,93900.78
2022-11-18T15:26:46.062Z,93846.13
2022-11-18T15:29:18.445Z,93834.59
2022-11-18T15:31:46.484Z,93855.31
2022-11-18T15:34:14.674Z,93847.59
2022-11-18T15:36:42.621Z,93844.66
2022-11-18T15:39:11.423Z,93826.09
2022-11-18T15:41:41.245Z,93821.47
2022-11-18T15:44:12.131Z,93827.00
2022-11-18T15:46:40.527Z,93836.00
2022-11-18T15:49:13.097Z,93831.06
2022-11-18T15:51:41.074Z,93831.75
2022-11-18T15:54:08.949Z,93823.25
2022-11-18T15:56:37.370Z,93817.00
2022-11-18T15:59:07.176Z,93818.88
2022-11-18T16:01:37.727Z,93820.03
2022-11-18T16:04:07.523Z,93800.34
2022-11-18T16:06:35.528Z,93802.75
2022-11-18T16:09:04.067Z,93801.91
2022-11-18T16:11:49.439Z,93801.22
2022-11-18T16:14:20.026Z,93736.47
2022-11-18T16:16:50.852Z,93812.59
2022-11-18T16:19:20.475Z,93781.00
2022-11-18T16:21:50.986Z,93754.31
2022-11-18T16:24:21.852Z,93810.81
2022-11-18T16:26:50.725Z,93819.00
2022-11-18T16:29:19.478Z,93852.91
2022-11-18T16:31:52.119Z,93881.19
2022-11-18T16:34:22.199Z,93894.03
2022-11-18T16:36:52.121Z,93889.91
2022-11-18T16:39:23.710Z,93886.16
2022-11-18T16:41:52.643Z,93864.56
2022-11-18T16:44:20.877Z,93886.25
2022-11-18T16:46:52.143Z,93887.09
2022-11-18T16:49:22.539Z,93837.56
2022-11-18T16:51:52.232Z,93894.13
2022-11-18T16:54:22.849Z,93727.72
2022-11-18T16:56:51.682Z,93888.00
2022-11-18T16:59:21.789Z,93890.34
2022-11-18T17:01:52.078Z,93876.41
2022-11-18T17:04:21.419Z,93860.53
2022-11-18T17:06:49.436Z,93877.16
2022-11-18T17:09:19.404Z,93874.84
2022-11-18T17:11:48.239Z,93826.81
2022-11-18T17:14:16.159Z,93887.25
2022-11-18T17:16:43.990Z,93884.94
2022-11-18T17:19:15.801Z,93868.25
2022-11-18T17:21:44.042Z,93868.63
2022-11-18T17:24:13.971Z,93828.41
2022-11-18T17:26:42.156Z,93850.06
2022-11-18T17:29:11.334Z,93852.38
2022-11-18T17:31:39.667Z,93853.53
2022-11-18T17:34:10.637Z,93849.28
2022-11-18T17:36:40.432Z,93853.91
2022-11-18T17:39:10.872Z,93858.53
2022-11-18T17:42:02.114Z,93845.03
2022-11-18T17:44:30.106Z,93783.47
2022-11-18T17:46:57.931Z,93809.00
2022-11-18T17:49:26.115Z,93819.09
2022-11-18T17:51:55.861Z,93828.38
2022-11-18T17:54:24.168Z,93802.03
2022-11-18T17:56:52.982Z,93816.31
2022-11-18T17:59:21.266Z,93817.09
2022-11-18T18:01:54.149Z,93822.78
2022-11-18T18:04:25.389Z,93822.41
2022-11-18T18:06:55.511Z,93804.72
2022-11-18T18:09:30.047Z,93820.97
2022-11-18T18:11:59.776Z,93767.84
2022-11-18T18:14:26.741Z,93804.63
2022-11-18T18:16:55.142Z,93757.69
2022-11-18T18:19:24.537Z,93815.78
2022-11-18T18:21:53.263Z,93820.72
2022-11-18T18:24:23.197Z,93796.38
2022-11-18T18:26:51.405Z,93790.94
2022-11-18T18:29:19.287Z,93816.91
2022-11-18T18:31:47.251Z,93826.19
2022-11-18T18:34:15.097Z,93820.44
2022-11-18T18:36:43.013Z,93816.22
2022-11-18T18:39:11.114Z,93818.50
2022-11-18T18:41:40.414Z,93820.44
2022-11-18T18:44:10.452Z,93790.22
2022-11-18T18:46:40.760Z,93788.31
2022-11-18T18:49:11.026Z,93840.94
2022-11-18T18:51:40.272Z,93820.47
2022-11-18T18:54:08.846Z,93822.06
2022-11-18T18:56:36.731Z,93829.84
2022-11-18T18:59:06.334Z,93781.81
2022-11-18T19:01:34.585Z,93832.97
2022-11-18T19:04:05.040Z,93845.00
2022-11-18T19:06:58.257Z,93850.44
2022-11-18T19:09:27.315Z,93847.31
2022-11-18T19:12:12.999Z,93866.72
2022-11-18T19:14:42.292Z,93853.94
2022-11-18T19:17:12.056Z,93853.94
2022-11-18T19:19:59.044Z,93857.41
2022-11-18T19:22:29.221Z,93867.88
2022-11-18T19:24:57.280Z,93881.06
2022-11-18T19:27:25.411Z,93754.00
2022-11-18T19:29:54.647Z,93873.28
2022-11-18T19:32:23.275Z,93850.81
2022-11-18T19:34:51.163Z,93879.47
2022-11-18T19:37:19.138Z,93876.00
2022-11-18T19:39:47.087Z,93840.72
2022-11-18T19:42:14.955Z,93857.41
2022-11-18T19:44:42.856Z,93851.59
2022-11-18T19:47:12.076Z,93916.28
2022-11-18T19:49:40.076Z,93925.97
2022-11-18T19:52:07.974Z,93936.03
2022-11-18T19:54:35.801Z,93939.13
2022-11-18T19:57:04.136Z,93898.03
2022-11-18T19:59:32.168Z,93921.31
2022-11-18T20:02:00.003Z,93956.56
2022-11-18T20:04:29.436Z,93961.22
2022-11-18T20:06:57.948Z,93971.28
2022-11-18T20:09:26.497Z,93995.28
2022-11-18T20:11:55.539Z,93972.44
2022-11-18T20:14:23.501Z,93980.16
2022-11-18T20:16:52.613Z,93956.09
2022-11-18T20:19:20.799Z,94015.41
2022-11-18T20:21:50.469Z,94022.38
2022-11-18T20:24:19.708Z,94013.06
2022-11-18T20:26:48.663Z,94020.38
2022-11-18T20:29:16.884Z,94020.72
2022-11-18T20:31:45.253Z,93978.78
2022-11-18T20:34:14.977Z,94030.78
2022-11-18T20:36:43.329Z,94025.66
2022-11-18T20:39:15.883Z,94032.66
2022-11-18T20:42:04.404Z,94036.56
2022-11-18T20:44:32.325Z,94045.44
2022-11-18T20:47:00.688Z,94033.41
2022-11-18T20:49:28.685Z,94031.84
2022-11-18T20:51:56.679Z,93877.38
2022-11-18T20:54:25.962Z,94027.91
2022-11-18T20:56:53.783Z,94022.47
2022-11-18T20:59:21.653Z,94030.94
2022-11-18T21:01:49.565Z,94045.63
2022-11-18T21:04:17.620Z,94053.28
2022-11-18T21:06:45.545Z,93989.56
2022-11-18T21:09:14.353Z,94051.31
2022-11-18T21:11:43.562Z,94040.09
2022-11-18T21:14:24.610Z,93924.75
2022-11-18T21:16:54.104Z,94053.19
2022-11-18T21:19:22.441Z,94014.31
2022-11-18T21:21:52.469Z,94050.06
2022-11-18T21:24:22.965Z,94025.63
2022-11-18T21:26:54.700Z,94039.53
2022-11-18T21:29:23.906Z,94024.38
2022-11-18T21:31:52.796Z,94040.66
2022-11-18T21:34:21.695Z,94008.00
2022-11-18T21:36:54.227Z,94049.97
2022-11-18T21:39:22.894Z,94046.47
2022-11-18T21:41:57.827Z,94049.19
2022-11-18T21:44:28.099Z,93996.03
2022-11-18T21:46:56.357Z,94025.16
2022-11-18T21:49:24.156Z,94066.72
2022-11-18T21:51:52.063Z,94072.16
2022-11-18T21:54:20.068Z,94042.69
2022-11-18T21:56:47.911Z,94071.84
2022-11-18T21:59:17.661Z,94034.56
2022-11-18T22:01:45.694Z,94059.03
2022-11-18T22:04:33.786Z,94084.19
2022-11-18T22:07:01.722Z,94100.81
2022-11-18T22:09:35.782Z,94074.22
2022-11-18T22:12:04.943Z,94102.09
2022-11-18T22:14:34.560Z,94110.16
2022-11-18T22:17:02.433Z,94121.22
2022-11-18T22:19:30.655Z,94116.56
2022-11-18T22:21:58.683Z,94123.97
2022-11-18T22:24:26.780Z,94111.97
2022-11-18T22:26:54.652Z,94124.53
2022-11-18T22:29:24.154Z,94128.50
2022-11-18T22:31:53.698Z,94126.19
2022-11-18T22:34:21.580Z,94128.50
2022-11-18T22:36:49.412Z,94135.50
2022-11-18T22:39:17.705Z,94135.03
2022-11-18T22:42:02.932Z,94144.78
2022-11-18T22:44:30.758Z,94157.13
2022-11-18T22:46:59.994Z,94154.16
2022-11-18T22:49:27.814Z,94168.81
2022-11-18T22:51:55.629Z,94183.34
2022-11-18T22:54:38.447Z,94186.91
2022-11-18T22:57:07.466Z,94206.91
2022-11-18T22:59:35.473Z,94218.06
2022-11-18T23:02:04.853Z,94213.38
2022-11-18T23:04:32.740Z,94239.53
2022-11-18T23:07:00.770Z,94249.50
2022-11-18T23:09:29.072Z,94248.63
2022-11-18T23:12:14.517Z,94244.31
2022-11-18T23:14:42.352Z,94251.25
2022-11-18T23:17:11.557Z,94252.41
2022-11-18T23:19:43.801Z,94260.50
2022-11-18T23:22:12.186Z,94260.13
2022-11-18T23:24:40.212Z,94262.50
2022-11-18T23:27:08.169Z,94274.13
2022-11-18T23:29:36.076Z,94288.53
2022-11-18T23:32:04.582Z,94266.69
2022-11-18T23:34:33.862Z,94271.75
2022-11-18T23:37:01.681Z,94267.31
2022-11-18T23:39:29.642Z,94271.13
2022-11-18T23:41:57.505Z,94277.13
2022-11-18T23:44:45.178Z,94285.53
2022-11-18T23:47:13.186Z,94282.00
2022-11-18T23:49:42.572Z,94300.91
2022-11-18T23:52:10.715Z,94300.53
2022-11-18T23:54:38.514Z,94310.53
2022-11-18T23:57:06.359Z,94319.38
2022-11-18T23:59:34.363Z,94316.28
